createdAt,value
2019-05-02T00:01:47.704Z,6.10
2019-05-02T00:04:19.974Z,6.67
2019-05-02T00:07:14.377Z,6.47
2019-05-02T00:09:47.445Z,5.90
2019-05-02T00:12:19.905Z,5.67
2019-05-02T00:14:56.335Z,6.07
2019-05-02T00:17:25.835Z,6.40
2019-05-02T00:19:55.123Z,6.40
2019-05-02T00:22:25.824Z,6.13
2019-05-02T00:25:05.243Z,5.80
2019-05-02T00:27:37.768Z,6.23
2019-05-02T00:30:09.304Z,5.67
2019-05-02T00:32:41.965Z,6.10
2019-05-02T00:35:14.544Z,5.80
2019-05-02T00:37:43.924Z,5.60
2019-05-02T00:40:13.903Z,5.53
2019-05-02T00:42:43.233Z,6.00
2019-05-02T00:45:14.200Z,6.10
2019-05-02T00:47:49.768Z,6.00
2019-05-02T00:50:19.285Z,5.67
2019-05-02T00:52:48.503Z,5.73
2019-05-02T00:55:18.264Z,5.77
2019-05-02T00:57:50.878Z,6.50
2019-05-02T01:00:21.278Z,5.80
2019-05-02T01:02:55.087Z,6.40
2019-05-02T01:05:24.746Z,6.37
2019-05-02T01:07:56.086Z,6.00
2019-05-02T01:10:27.883Z,5.97
2019-05-02T01:12:57.204Z,6.17
2019-05-02T01:15:26.608Z,6.40
2019-05-02T01:17:56.143Z,6.23
2019-05-02T01:20:27.404Z,6.33
2019-05-02T01:22:56.684Z,6.10
2019-05-02T01:25:26.004Z,6.60
2019-05-02T01:28:17.579Z,6.07
2019-05-02T01:31:03.643Z,6.80
2019-05-02T01:33:41.794Z,6.57
2019-05-02T01:36:25.163Z,6.20
2019-05-02T01:38:57.523Z,6.60
2019-05-02T01:41:29.372Z,7.07
2019-05-02T01:44:00.128Z,6.70
2019-05-02T01:46:29.383Z,6.40
2019-05-02T01:48:59.024Z,6.50
2019-05-02T01:51:28.244Z,7.17
2019-05-02T01:53:57.884Z,5.93
2019-05-02T01:56:28.566Z,6.23
2019-05-02T01:58:58.955Z,6.60
2019-05-02T02:01:28.487Z,6.20
2019-05-02T02:03:57.687Z,6.30
2019-05-02T02:06:27.126Z,6.13
2019-05-02T02:08:56.844Z,6.33
2019-05-02T02:11:28.439Z,5.80
2019-05-02T02:13:58.644Z,6.77
2019-05-02T02:16:28.103Z,6.10
2019-05-02T02:19:03.507Z,6.50
2019-05-02T02:21:31.764Z,6.67
2019-05-02T02:24:05.003Z,6.90
2019-05-02T02:26:34.382Z,6.37
2019-05-02T02:29:07.952Z,6.90
2019-05-02T02:31:43.792Z,7.43
2019-05-02T02:34:11.844Z,6.53
2019-05-02T02:36:41.365Z,6.53
2019-05-02T02:39:14.196Z,6.80
2019-05-02T02:41:45.275Z,6.60
2019-05-02T02:44:14.880Z,7.00
2019-05-02T02:46:49.345Z,6.93
2019-05-02T02:49:24.435Z,7.30
2019-05-02T02:51:58.087Z,6.77
2019-05-02T02:54:24.244Z,7.13
2019-05-02T02:56:53.969Z,8.10
2019-05-02T02:59:29.203Z,7.23
2019-05-02T03:02:08.676Z,7.67
2019-05-02T03:04:29.383Z,7.40
2019-05-02T03:06:59.143Z,7.27
2019-05-02T03:09:29.062Z,7.47
2019-05-02T03:12:19.906Z,7.20
2019-05-02T03:14:50.850Z,7.00
2019-05-02T03:17:25.816Z,7.47
2019-05-02T03:20:01.137Z,7.80
2019-05-02T03:22:25.848Z,7.33
2019-05-02T03:24:58.484Z,7.40
2019-05-02T03:27:30.005Z,7.13
2019-05-02T03:29:59.503Z,7.70
2019-05-02T03:32:34.581Z,7.53
2019-05-02T03:35:00.685Z,7.80
2019-05-02T03:37:30.493Z,6.80
2019-05-02T03:40:00.861Z,7.70
2019-05-02T03:42:44.057Z,6.97
2019-05-02T03:45:04.971Z,7.27
2019-05-02T03:47:36.831Z,7.53
2019-05-02T03:50:09.268Z,7.47
2019-05-02T03:52:43.638Z,7.17
2019-05-02T03:55:09.167Z,7.43
2019-05-02T03:57:41.886Z,7.10
2019-05-02T04:00:13.606Z,7.13
2019-05-02T04:02:42.604Z,7.27
2019-05-02T04:05:11.904Z,7.13
2019-05-02T04:07:42.321Z,6.90
2019-05-02T04:10:19.715Z,6.90
2019-05-02T04:12:46.037Z,7.00
2019-05-02T04:15:15.753Z,7.03
2019-05-02T04:17:45.190Z,7.10
2019-05-02T04:20:14.865Z,7.40
2019-05-02T04:22:48.972Z,6.67
2019-05-02T04:25:16.287Z,6.80
2019-05-02T04:27:46.425Z,6.67
2019-05-02T04:30:15.844Z,7.77
2019-05-02T04:32:49.777Z,6.90
2019-05-02T04:35:19.384Z,7.03
2019-05-02T04:37:49.565Z,7.20
2019-05-02T04:40:22.083Z,6.63
2019-05-02T04:43:02.087Z,7.00
2019-05-02T04:45:29.261Z,6.10
2019-05-02T04:48:01.001Z,7.23
2019-05-02T04:50:29.458Z,6.70
2019-05-02T04:52:59.341Z,6.17
2019-05-02T04:55:33.434Z,6.93
2019-05-02T04:58:02.945Z,7.13
2019-05-02T05:00:32.599Z,5.90
2019-05-02T05:03:09.423Z,7.17
2019-05-02T05:05:33.443Z,6.50
2019-05-02T05:08:07.750Z,6.77
2019-05-02T05:10:41.458Z,6.53
2019-05-02T05:13:12.118Z,6.13
2019-05-02T05:15:48.434Z,6.17
2019-05-02T05:18:14.478Z,6.60
2019-05-02T05:20:45.966Z,6.23
2019-05-02T05:23:21.490Z,6.33
2019-05-02T05:25:55.677Z,6.40
2019-05-02T05:28:26.939Z,6.40
2019-05-02T05:30:58.304Z,6.60
2019-05-02T05:33:28.394Z,6.93
2019-05-02T05:35:58.084Z,7.10
2019-05-02T05:38:32.118Z,6.10
2019-05-02T05:41:03.060Z,6.27
2019-05-02T05:43:30.643Z,6.50
2019-05-02T05:46:09.250Z,7.00
2019-05-02T05:48:32.150Z,6.60
2019-05-02T05:51:02.464Z,5.87
2019-05-02T05:53:32.123Z,6.47
2019-05-02T05:56:07.931Z,6.57
2019-05-02T05:58:39.858Z,7.30
2019-05-02T06:01:10.260Z,6.77
2019-05-02T06:03:44.626Z,6.40
2019-05-02T06:06:14.884Z,6.63
2019-05-02T06:08:41.864Z,6.10
2019-05-02T06:11:14.933Z,6.00
2019-05-02T06:13:42.888Z,5.83
2019-05-02T06:16:14.978Z,5.70
2019-05-02T06:18:44.483Z,5.70
2019-05-02T06:21:17.011Z,6.17
2019-05-02T06:23:45.543Z,5.70
2019-05-02T06:26:15.910Z,5.53
2019-05-02T06:28:45.493Z,5.73
2019-05-02T06:31:17.080Z,5.63
2019-05-02T06:33:46.945Z,6.63
2019-05-02T06:36:16.884Z,5.70
2019-05-02T06:38:46.167Z,6.03
2019-05-02T06:41:20.932Z,6.43
2019-05-02T06:43:48.305Z,5.60
2019-05-02T06:46:22.001Z,5.97
2019-05-02T06:48:52.258Z,5.30
2019-05-02T06:51:21.149Z,5.40
2019-05-02T06:53:51.645Z,4.73
2019-05-02T06:56:21.084Z,5.40
2019-05-02T06:58:50.531Z,5.00
2019-05-02T07:01:21.204Z,4.93
2019-05-02T07:03:51.585Z,5.40
2019-05-02T07:06:21.410Z,4.80
2019-05-02T07:08:50.832Z,5.30
2019-05-02T07:11:20.344Z,4.93
2019-05-02T07:13:49.884Z,4.90
2019-05-02T07:16:37.831Z,5.07
2019-05-02T07:19:21.619Z,4.90
2019-05-02T07:21:47.947Z,4.80
2019-05-02T07:24:17.783Z,5.13
2019-05-02T07:26:47.346Z,4.70
2019-05-02T07:29:21.458Z,5.30
2019-05-02T07:31:48.898Z,4.60
2019-05-02T07:34:18.785Z,4.57
2019-05-02T07:36:48.671Z,4.73
2019-05-02T07:39:18.353Z,4.00
2019-05-02T07:41:47.703Z,4.43
2019-05-02T07:44:17.683Z,4.17
2019-05-02T07:46:51.841Z,4.57
2019-05-02T07:49:26.712Z,3.97
2019-05-02T07:51:57.499Z,4.20
2019-05-02T07:54:26.751Z,4.50
2019-05-02T07:57:02.334Z,4.20
2019-05-02T07:59:34.932Z,4.33
2019-05-02T08:02:05.043Z,4.50
2019-05-02T08:04:34.691Z,4.40
2019-05-02T08:07:04.423Z,4.30
2019-05-02T08:09:34.044Z,3.83
2019-05-02T08:12:04.764Z,4.13
2019-05-02T08:14:36.310Z,4.10
2019-05-02T08:17:17.248Z,3.93
2019-05-02T08:19:44.964Z,4.17
2019-05-02T08:22:17.064Z,4.20
2019-05-02T08:24:46.611Z,4.20
2019-05-02T08:27:23.136Z,3.80
2019-05-02T08:29:54.163Z,3.90
2019-05-02T08:32:23.603Z,3.30
2019-05-02T08:34:53.500Z,3.37
2019-05-02T08:37:41.246Z,4.00
2019-05-02T08:40:10.745Z,4.13
2019-05-02T08:42:39.703Z,4.30
2019-05-02T08:45:09.663Z,4.60
2019-05-02T08:47:39.126Z,4.50
2019-05-02T08:50:10.391Z,4.20
2019-05-02T08:52:42.351Z,4.30
2019-05-02T08:55:11.089Z,4.30
2019-05-02T08:57:40.705Z,3.93
2019-05-02T09:00:16.691Z,4.63
2019-05-02T09:02:46.523Z,4.27
2019-05-02T09:05:16.786Z,3.90
2019-05-02T09:07:46.205Z,3.80
2019-05-02T09:10:17.044Z,3.90
2019-05-02T09:12:46.645Z,4.20
2019-05-02T09:15:22.395Z,4.60
2019-05-02T09:17:56.278Z,4.30
2019-05-02T09:20:23.726Z,4.30
2019-05-02T09:22:55.998Z,4.40
2019-05-02T09:25:32.497Z,4.20
2019-05-02T09:28:06.505Z,4.00
2019-05-02T09:30:38.287Z,4.00
2019-05-02T09:33:07.587Z,4.13
2019-05-02T09:35:36.871Z,4.70
2019-05-02T09:38:08.015Z,4.03
2019-05-02T09:40:37.824Z,4.23
2019-05-02T09:43:07.864Z,3.77
2019-05-02T09:45:37.869Z,3.50
2019-05-02T09:48:08.408Z,3.30
2019-05-02T09:50:38.449Z,3.40
2019-05-02T09:53:12.994Z,3.63
2019-05-02T09:55:50.220Z,3.27
2019-05-02T09:58:20.054Z,3.70
2019-05-02T10:00:57.425Z,4.00
2019-05-02T10:03:27.352Z,3.70
2019-05-02T10:05:56.806Z,3.43
2019-05-02T10:08:27.131Z,3.93
2019-05-02T10:10:56.723Z,3.73
2019-05-02T10:13:26.113Z,3.57
2019-05-02T10:15:56.003Z,3.73
2019-05-02T10:18:30.190Z,3.30
2019-05-02T10:20:59.423Z,3.43
2019-05-02T10:23:58.952Z,3.40
2019-05-02T10:26:24.603Z,3.37
2019-05-02T10:28:54.345Z,3.67
2019-05-02T10:31:27.676Z,3.57
2019-05-02T10:33:57.744Z,3.40
2019-05-02T10:36:27.104Z,3.40
2019-05-02T10:38:59.157Z,3.70
2019-05-02T10:41:31.708Z,3.40
2019-05-02T10:43:59.627Z,3.17
2019-05-02T10:46:36.038Z,3.20
2019-05-02T10:49:03.622Z,3.20
2019-05-02T10:51:34.486Z,2.90
2019-05-02T10:54:06.466Z,3.00
2019-05-02T10:56:35.664Z,3.20
2019-05-02T10:59:06.527Z,3.20
2019-05-02T11:01:37.503Z,3.13
2019-05-02T11:04:12.932Z,2.97
2019-05-02T11:06:46.300Z,3.20
2019-05-02T11:09:16.837Z,2.70
2019-05-02T11:11:46.403Z,3.00
2019-05-02T11:14:33.488Z,2.87
2019-05-02T11:17:08.839Z,3.10
2019-05-02T11:19:43.304Z,2.80
2019-05-02T11:22:13.285Z,3.00
2019-05-02T11:24:42.724Z,3.10
2019-05-02T11:27:13.223Z,3.00
2019-05-02T11:29:42.647Z,2.87
2019-05-02T11:32:12.867Z,3.07
2019-05-02T11:34:43.155Z,3.13
2019-05-02T11:37:13.923Z,3.17
2019-05-02T11:39:50.097Z,2.77
2019-05-02T11:42:17.835Z,2.77
2019-05-02T11:44:46.645Z,2.73
2019-05-02T11:47:17.187Z,2.77
2019-05-02T11:49:50.919Z,2.60
2019-05-02T11:52:18.524Z,2.97
2019-05-02T11:54:48.652Z,3.00
2019-05-02T11:57:21.014Z,2.70
2019-05-02T11:59:49.721Z,2.50
2019-05-02T12:02:23.880Z,2.70
2019-05-02T12:04:55.554Z,3.17
2019-05-02T12:07:25.079Z,2.80
2019-05-02T12:10:21.520Z,2.90
2019-05-02T12:12:52.543Z,3.00
2019-05-02T12:15:21.707Z,2.87
2019-05-02T12:17:52.945Z,3.07
2019-05-02T12:20:33.928Z,2.50
2019-05-02T12:23:02.353Z,2.87
2019-05-02T12:25:34.106Z,2.67
2019-05-02T12:28:05.705Z,2.80
2019-05-02T12:30:37.895Z,3.10
2019-05-02T12:33:08.926Z,2.77
2019-05-02T12:35:38.705Z,2.60
2019-05-02T12:38:12.446Z,3.20
2019-05-02T12:40:42.430Z,2.80
2019-05-02T12:43:14.985Z,2.93
2019-05-02T12:45:45.805Z,2.93
2019-05-02T12:48:15.245Z,3.20
2019-05-02T12:50:45.265Z,3.20
2019-05-02T12:53:15.419Z,3.00
2019-05-02T12:55:48.987Z,3.10
2019-05-02T12:58:25.610Z,2.63
2019-05-02T13:01:00.166Z,2.80
2019-05-02T13:03:45.684Z,3.10
2019-05-02T13:06:22.471Z,2.80
2019-05-02T13:08:55.604Z,2.80
2019-05-02T13:11:36.895Z,2.83
2019-05-02T13:14:15.724Z,2.77
2019-05-02T13:16:37.724Z,3.17
2019-05-02T13:19:07.875Z,3.57
2019-05-02T13:21:42.331Z,2.70
2019-05-02T13:24:29.478Z,3.03
2019-05-02T13:27:01.790Z,2.50
2019-05-02T13:29:35.541Z,2.60
2019-05-02T13:32:16.989Z,2.77
2019-05-02T13:34:44.127Z,2.83
2019-05-02T13:37:15.564Z,2.90
2019-05-02T13:39:58.727Z,3.00
2019-05-02T13:42:33.679Z,2.90
2019-05-02T13:45:04.644Z,3.17
2019-05-02T13:47:34.983Z,2.87
2019-05-02T13:50:05.752Z,2.60
2019-05-02T13:52:35.411Z,2.60
2019-05-02T13:55:09.314Z,3.03
2019-05-02T13:57:43.099Z,2.50
2019-05-02T14:00:16.015Z,2.73
2019-05-02T14:02:44.896Z,2.47
2019-05-02T14:05:17.586Z,2.63
2019-05-02T14:07:55.615Z,2.93
2019-05-02T14:10:25.708Z,2.43
2019-05-02T14:12:59.984Z,2.60
2019-05-02T14:15:32.425Z,2.50
2019-05-02T14:18:02.465Z,3.50
2019-05-02T14:20:33.102Z,2.70
2019-05-02T14:23:02.679Z,3.30
2019-05-02T14:25:32.258Z,2.70
2019-05-02T14:28:02.960Z,2.83
2019-05-02T14:30:39.464Z,2.90
2019-05-02T14:33:05.706Z,2.70
2019-05-02T14:35:36.701Z,2.73
2019-05-02T14:38:09.835Z,2.57
2019-05-02T14:40:42.593Z,2.77
2019-05-02T14:43:13.015Z,2.80
2019-05-02T14:45:43.918Z,2.53
2019-05-02T14:48:19.296Z,2.20
2019-05-02T14:50:47.566Z,2.40
2019-05-02T14:53:22.128Z,2.67
2019-05-02T14:55:53.177Z,2.60
2019-05-02T14:58:22.618Z,2.33
2019-05-02T15:00:53.443Z,2.87
2019-05-02T15:03:24.573Z,2.80
2019-05-02T15:05:53.765Z,2.90
2019-05-02T15:08:23.183Z,2.30
2019-05-02T15:10:56.502Z,2.60
2019-05-02T15:13:23.505Z,2.80
2019-05-02T15:15:53.057Z,2.33
2019-05-02T15:18:22.805Z,2.70
2019-05-02T15:20:52.247Z,2.43
2019-05-02T15:23:22.798Z,2.43
2019-05-02T15:25:55.968Z,2.40
2019-05-02T15:28:23.132Z,2.37
2019-05-02T15:31:07.265Z,2.23
2019-05-02T15:33:37.842Z,2.43
2019-05-02T15:36:08.954Z,2.87
2019-05-02T15:38:45.619Z,2.40
2019-05-02T15:41:12.647Z,2.57
2019-05-02T15:43:44.477Z,2.60
2019-05-02T15:46:17.310Z,2.57
2019-05-02T15:48:43.042Z,2.53
2019-05-02T15:51:12.410Z,2.70
2019-05-02T15:54:06.030Z,2.57
2019-05-02T15:56:29.872Z,2.80
2019-05-02T15:59:03.430Z,2.70
2019-05-02T16:01:41.591Z,2.50
2019-05-02T16:04:17.138Z,2.40
2019-05-02T16:06:45.325Z,2.60
2019-05-02T16:09:14.735Z,2.57
2019-05-02T16:11:47.856Z,2.60
2019-05-02T16:14:14.777Z,2.57
2019-05-02T16:16:45.332Z,2.43
2019-05-02T16:19:23.020Z,2.40
2019-05-02T16:21:51.958Z,2.73
2019-05-02T16:24:23.277Z,2.80
2019-05-02T16:26:56.871Z,3.00
2019-05-02T16:29:28.491Z,2.60
2019-05-02T16:32:10.389Z,2.50
2019-05-02T16:34:59.486Z,2.73
2019-05-02T16:37:28.939Z,2.47
2019-05-02T16:39:58.006Z,2.90
2019-05-02T16:42:27.121Z,2.70
2019-05-02T16:44:59.045Z,2.43
2019-05-02T16:47:27.621Z,2.80
2019-05-02T16:49:56.801Z,2.80
2019-05-02T16:52:26.245Z,2.97
2019-05-02T16:54:55.824Z,2.43
2019-05-02T16:57:25.085Z,3.07
2019-05-02T17:00:01.208Z,2.90
2019-05-02T17:02:28.821Z,2.40
2019-05-02T17:05:00.289Z,2.50
2019-05-02T17:07:39.537Z,2.57
2019-05-02T17:10:16.136Z,2.47
2019-05-02T17:12:47.245Z,2.50
2019-05-02T17:15:36.860Z,2.60
2019-05-02T17:18:17.998Z,2.60
2019-05-02T17:20:40.140Z,2.93
2019-05-02T17:23:09.639Z,2.60
2019-05-02T17:25:38.918Z,2.73
2019-05-02T17:28:10.498Z,2.67
2019-05-02T17:30:40.654Z,2.87
2019-05-02T17:33:12.787Z,2.40
2019-05-02T17:35:41.604Z,2.63
2019-05-02T17:38:19.147Z,2.20
2019-05-02T17:40:46.182Z,2.80
2019-05-02T17:43:27.951Z,2.53
2019-05-02T17:45:57.244Z,2.67
2019-05-02T17:48:26.329Z,2.50
2019-05-02T17:51:12.431Z,2.50
2019-05-02T17:53:49.317Z,2.60
2019-05-02T17:56:20.978Z,2.40
2019-05-02T17:58:54.295Z,2.50
2019-05-02T18:01:31.868Z,2.90
2019-05-02T18:04:06.796Z,2.50
2019-05-02T18:06:39.169Z,2.30
2019-05-02T18:09:09.824Z,2.50
2019-05-02T18:11:42.420Z,2.70
2019-05-02T18:14:19.958Z,2.33
2019-05-02T18:16:47.120Z,2.53
2019-05-02T18:19:21.856Z,2.90
2019-05-02T18:21:49.442Z,2.30
2019-05-02T18:24:19.036Z,2.20
2019-05-02T18:26:49.351Z,2.60
2019-05-02T18:29:19.816Z,2.43
2019-05-02T18:31:49.492Z,2.43
2019-05-02T18:34:25.227Z,2.40
2019-05-02T18:36:57.414Z,2.60
2019-05-02T18:39:25.594Z,2.30
2019-05-02T18:41:55.216Z,2.47
2019-05-02T18:44:28.143Z,3.10
2019-05-02T18:46:59.391Z,2.93
2019-05-02T18:49:32.152Z,2.93
2019-05-02T18:52:01.948Z,3.17
2019-05-02T18:54:33.669Z,2.53
2019-05-02T18:57:03.494Z,2.20
2019-05-02T18:59:33.500Z,2.63
2019-05-02T19:02:07.671Z,3.20
2019-05-02T19:04:42.297Z,3.00
2019-05-02T19:07:15.732Z,2.70
2019-05-02T19:09:51.041Z,2.57
2019-05-02T19:12:22.485Z,2.57
2019-05-02T19:14:50.394Z,2.60
2019-05-02T19:17:27.978Z,2.73
2019-05-02T19:19:58.708Z,2.97
2019-05-02T19:22:29.838Z,2.90
2019-05-02T19:25:03.864Z,2.63
2019-05-02T19:27:48.627Z,2.70
2019-05-02T19:30:24.472Z,2.80
2019-05-02T19:32:57.786Z,2.90
2019-05-02T19:35:30.212Z,3.07
2019-05-02T19:38:02.556Z,2.63
2019-05-02T19:40:42.792Z,2.73
2019-05-02T19:43:14.787Z,2.57
2019-05-02T19:45:45.793Z,3.00
2019-05-02T19:48:17.324Z,3.13
2019-05-02T19:50:56.214Z,2.97
2019-05-02T19:53:26.867Z,3.10
2019-05-02T19:56:01.363Z,2.70
2019-05-02T19:58:32.015Z,3.10
2019-05-02T20:01:06.957Z,2.73
2019-05-02T20:03:38.076Z,3.30
2019-05-02T20:06:12.799Z,3.03
2019-05-02T20:08:44.788Z,2.87
2019-05-02T20:11:17.837Z,2.80
2019-05-02T20:13:51.547Z,2.60
2019-05-02T20:16:27.989Z,2.80
2019-05-02T20:18:57.606Z,3.10
2019-05-02T20:21:28.547Z,3.00
2019-05-02T20:24:01.197Z,3.07
2019-05-02T20:26:29.167Z,2.80
2019-05-02T20:28:58.568Z,3.00
2019-05-02T20:31:28.207Z,2.93
2019-05-02T20:33:57.745Z,3.60
2019-05-02T20:36:27.004Z,3.20
2019-05-02T20:38:56.305Z,3.20
2019-05-02T20:41:26.405Z,3.30
2019-05-02T20:43:58.024Z,3.20
2019-05-02T20:46:27.964Z,3.77
2019-05-02T20:48:57.684Z,3.07
2019-05-02T20:51:29.351Z,3.40
2019-05-02T20:53:58.724Z,3.17
2019-05-02T20:56:28.624Z,3.10
2019-05-02T20:58:59.464Z,3.10
2019-05-02T21:01:28.844Z,3.10
2019-05-02T21:03:58.583Z,2.87
2019-05-02T21:06:44.723Z,2.63
2019-05-02T21:09:16.304Z,2.80
2019-05-02T21:11:52.503Z,2.60
2019-05-02T21:14:21.964Z,2.90
2019-05-02T21:16:52.618Z,2.77
2019-05-02T21:19:22.731Z,2.53
2019-05-02T21:21:53.792Z,2.40
2019-05-02T21:24:24.505Z,2.83
2019-05-02T21:26:54.214Z,2.60
2019-05-02T21:29:24.924Z,2.43
2019-05-02T21:31:55.303Z,2.73
2019-05-02T21:34:24.539Z,2.73
2019-05-02T21:36:53.806Z,2.80
2019-05-02T21:39:23.486Z,2.80
2019-05-02T21:41:52.944Z,2.63
2019-05-02T21:44:22.441Z,2.30
2019-05-02T21:46:51.964Z,2.70
2019-05-02T21:49:38.782Z,2.13
2019-05-02T21:52:09.561Z,2.73
2019-05-02T21:54:45.419Z,2.90
2019-05-02T21:57:16.760Z,2.93
2019-05-02T21:59:46.498Z,3.03
2019-05-02T22:02:16.831Z,2.83
2019-05-02T22:04:46.146Z,2.80
2019-05-02T22:07:18.278Z,2.40
2019-05-02T22:09:47.699Z,2.73
2019-05-02T22:12:17.299Z,2.40
2019-05-02T22:14:50.260Z,2.60
2019-05-02T22:17:21.529Z,2.53
2019-05-02T22:19:52.408Z,2.27
2019-05-02T22:22:22.910Z,2.87
2019-05-02T22:24:52.950Z,2.30
2019-05-02T22:27:25.820Z,2.10
2019-05-02T22:30:02.118Z,2.67
2019-05-02T22:32:32.099Z,2.43
2019-05-02T22:35:02.240Z,2.10
2019-05-02T22:37:32.735Z,2.33
2019-05-02T22:40:04.820Z,2.70
2019-05-02T22:42:34.200Z,2.50
2019-05-02T22:45:06.558Z,2.77
2019-05-02T22:47:36.049Z,2.33
2019-05-02T22:50:07.760Z,2.77
2019-05-02T22:52:37.641Z,2.37
2019-05-02T22:55:08.430Z,2.20
2019-05-02T22:57:38.221Z,2.17
2019-05-02T23:00:09.229Z,2.37
2019-05-02T23:02:42.219Z,2.67
2019-05-02T23:05:14.860Z,2.23
2019-05-02T23:07:44.882Z,2.27
2019-05-02T23:10:15.040Z,2.40
2019-05-02T23:12:52.199Z,2.70
2019-05-02T23:15:21.651Z,2.10
2019-05-02T23:17:55.599Z,2.17
2019-05-02T23:20:28.758Z,2.10
2019-05-02T23:22:59.579Z,2.37
2019-05-02T23:25:46.840Z,2.27
2019-05-02T23:28:18.940Z,2.40
2019-05-02T23:30:49.520Z,2.57
2019-05-02T23:33:19.559Z,2.50
2019-05-02T23:35:49.718Z,2.40
2019-05-02T23:38:21.774Z,2.60
2019-05-02T23:40:52.644Z,2.87
2019-05-02T23:43:22.499Z,2.50
2019-05-02T23:45:52.623Z,2.40
2019-05-02T23:48:24.759Z,2.13
2019-05-02T23:50:55.102Z,2.77
2019-05-02T23:53:25.719Z,2.67
2019-05-02T23:55:55.459Z,2.47
2019-05-02T23:58:27.799Z,2.53
